sensor_id;sensor_type;location;lat;lon;timestamp;temperature;humidity
38333;DHT22;25748;46.670;14.272;2023-02-04T00:01:43;2.20;65.40
38333;DHT22;25748;46.670;14.272;2023-02-04T00:04:12;2.20;65.40
38333;DHT22;25748;46.670;14.272;2023-02-04T00:06:37;2.20;65.40
38333;DHT22;25748;46.670;14.272;2023-02-04T00:09:03;2.20;65.30
38333;DHT22;25748;46.670;14.272;2023-02-04T00:11:29;2.20;65.00
38333;DHT22;25748;46.670;14.272;2023-02-04T00:13:55;2.10;64.90
38333;DHT22;25748;46.670;14.272;2023-02-04T00:16:20;2.10;65.00
38333;DHT22;25748;46.670;14.272;2023-02-04T00:18:46;2.10;65.60
38333;DHT22;25748;46.670;14.272;2023-02-04T00:21:12;2.00;65.70
38333;DHT22;25748;46.670;14.272;2023-02-04T00:23:38;2.00;65.60
38333;DHT22;25748;46.670;14.272;2023-02-04T00:26:04;2.00;65.60
38333;DHT22;25748;46.670;14.272;2023-02-04T00:28:29;2.00;65.50
38333;DHT22;25748;46.670;14.272;2023-02-04T00:30:55;1.90;65.40
38333;DHT22;25748;46.670;14.272;2023-02-04T00:33:21;1.90;65.60
38333;DHT22;25748;46.670;14.272;2023-02-04T00:35:46;1.90;65.50
38333;DHT22;25748;46.670;14.272;2023-02-04T00:38:12;1.90;65.40
38333;DHT22;25748;46.670;14.272;2023-02-04T00:40:38;1.90;65.50
38333;DHT22;25748;46.670;14.272;2023-02-04T00:43:04;1.80;65.50
38333;DHT22;25748;46.670;14.272;2023-02-04T00:45:29;1.80;65.60
38333;DHT22;25748;46.670;14.272;2023-02-04T00:47:55;1.80;66.20
38333;DHT22;25748;46.670;14.272;2023-02-04T00:50:22;1.80;66.30
38333;DHT22;25748;46.670;14.272;2023-02-04T00:52:48;1.80;66.60
38333;DHT22;25748;46.670;14.272;2023-02-04T00:55:14;1.80;66.70
38333;DHT22;25748;46.670;14.272;2023-02-04T00:57:41;1.80;66.60
38333;DHT22;25748;46.670;14.272;2023-02-04T01:00:08;1.80;66.80
38333;DHT22;25748;46.670;14.272;2023-02-04T01:02:34;1.80;66.80
38333;DHT22;25748;46.670;14.272;2023-02-04T01:04:59;1.80;66.80
38333;DHT22;25748;46.670;14.272;2023-02-04T01:07:25;1.80;66.80
38333;DHT22;25748;46.670;14.272;2023-02-04T01:09:51;1.80;67.00
38333;DHT22;25748;46.670;14.272;2023-02-04T01:12:16;1.80;67.00
38333;DHT22;25748;46.670;14.272;2023-02-04T01:14:42;1.80;67.10
38333;DHT22;25748;46.670;14.272;2023-02-04T01:17:08;1.80;67.10
38333;DHT22;25748;46.670;14.272;2023-02-04T01:19:34;1.80;67.10
38333;DHT22;25748;46.670;14.272;2023-02-04T01:21:59;1.80;67.10
38333;DHT22;25748;46.670;14.272;2023-02-04T01:24:25;1.80;67.00
38333;DHT22;25748;46.670;14.272;2023-02-04T01:26:51;1.70;66.70
38333;DHT22;25748;46.670;14.272;2023-02-04T01:29:16;1.70;66.50
38333;DHT22;25748;46.670;14.272;2023-02-04T01:31:42;1.70;66.70
38333;DHT22;25748;46.670;14.272;2023-02-04T01:34:08;1.70;66.80
38333;DHT22;25748;46.670;14.272;2023-02-04T01:36:33;1.60;67.00
38333;DHT22;25748;46.670;14.272;2023-02-04T01:38:59;1.60;66.60
38333;DHT22;25748;46.670;14.272;2023-02-04T01:41:26;1.60;66.60
38333;DHT22;25748;46.670;14.272;2023-02-04T01:43:52;1.60;66.50
38333;DHT22;25748;46.670;14.272;2023-02-04T01:46:18;1.50;66.30
38333;DHT22;25748;46.670;14.272;2023-02-04T01:48:44;1.40;66.10
38333;DHT22;25748;46.670;14.272;2023-02-04T01:51:15;1.40;66.10
38333;DHT22;25748;46.670;14.272;2023-02-04T01:53:41;1.40;66.10
38333;DHT22;25748;46.670;14.272;2023-02-04T01:56:17;1.40;66.20
38333;DHT22;25748;46.670;14.272;2023-02-04T01:58:44;1.40;66.30
38333;DHT22;25748;46.670;14.272;2023-02-04T02:01:14;1.40;66.50
38333;DHT22;25748;46.670;14.272;2023-02-04T02:03:40;1.40;66.60
38333;DHT22;25748;46.670;14.272;2023-02-04T02:06:08;1.40;66.80
38333;DHT22;25748;46.670;14.272;2023-02-04T02:08:38;1.40;66.90
38333;DHT22;25748;46.670;14.272;2023-02-04T02:11:03;1.40;67.00
38333;DHT22;25748;46.670;14.272;2023-02-04T02:13:29;1.40;67.10
38333;DHT22;25748;46.670;14.272;2023-02-04T02:15:55;1.40;67.40
38333;DHT22;25748;46.670;14.272;2023-02-04T02:18:21;1.30;67.30
38333;DHT22;25748;46.670;14.272;2023-02-04T02:20:47;1.30;67.50
38333;DHT22;25748;46.670;14.272;2023-02-04T02:25:51;1.40;67.80
38333;DHT22;25748;46.670;14.272;2023-02-04T02:28:19;1.40;67.70
38333;DHT22;25748;46.670;14.272;2023-02-04T02:30:47;1.40;67.80
38333;DHT22;25748;46.670;14.272;2023-02-04T02:33:18;1.40;67.60
38333;DHT22;25748;46.670;14.272;2023-02-04T02:35:45;1.30;67.50
38333;DHT22;25748;46.670;14.272;2023-02-04T02:38:15;1.30;67.30
38333;DHT22;25748;46.670;14.272;2023-02-04T02:40:41;1.20;67.20
38333;DHT22;25748;46.670;14.272;2023-02-04T02:43:12;1.20;67.20
38333;DHT22;25748;46.670;14.272;2023-02-04T02:45:39;1.20;67.20
38333;DHT22;25748;46.670;14.272;2023-02-04T02:48:05;1.10;67.20
38333;DHT22;25748;46.670;14.272;2023-02-04T02:50:31;1.10;67.10
38333;DHT22;25748;46.670;14.272;2023-02-04T02:52:58;1.00;67.00
38333;DHT22;25748;46.670;14.272;2023-02-04T02:55:25;1.00;67.30
38333;DHT22;25748;46.670;14.272;2023-02-04T02:57:52;1.00;67.40
38333;DHT22;25748;46.670;14.272;2023-02-04T03:03:00;1.00;67.50
38333;DHT22;25748;46.670;14.272;2023-02-04T03:05:29;1.00;67.50
38333;DHT22;25748;46.670;14.272;2023-02-04T03:07:55;0.90;67.30
38333;DHT22;25748;46.670;14.272;2023-02-04T03:10:20;0.90;67.30
38333;DHT22;25748;46.670;14.272;2023-02-04T03:12:46;0.90;67.30
38333;DHT22;25748;46.670;14.272;2023-02-04T03:15:13;0.80;66.90
38333;DHT22;25748;46.670;14.272;2023-02-04T03:17:39;0.80;67.10
38333;DHT22;25748;46.670;14.272;2023-02-04T03:20:06;0.80;67.20
38333;DHT22;25748;46.670;14.272;2023-02-04T03:22:32;0.70;67.10
38333;DHT22;25748;46.670;14.272;2023-02-04T03:24:58;0.70;66.70
38333;DHT22;25748;46.670;14.272;2023-02-04T03:27:24;0.60;66.80
38333;DHT22;25748;46.670;14.272;2023-02-04T03:29:49;0.60;66.80
38333;DHT22;25748;46.670;14.272;2023-02-04T03:32:16;0.50;66.50
38333;DHT22;25748;46.670;14.272;2023-02-04T03:34:41;0.50;66.40
38333;DHT22;25748;46.670;14.272;2023-02-04T03:37:07;0.40;66.30
38333;DHT22;25748;46.670;14.272;2023-02-04T03:39:34;0.40;66.40
38333;DHT22;25748;46.670;14.272;2023-02-04T03:42:01;0.30;66.30
38333;DHT22;25748;46.670;14.272;2023-02-04T03:44:26;0.20;66.20
38333;DHT22;25748;46.670;14.272;2023-02-04T03:46:53;0.20;66.50
38333;DHT22;25748;46.670;14.272;2023-02-04T03:49:23;0.20;66.70
38333;DHT22;25748;46.670;14.272;2023-02-04T03:51:49;0.10;66.50
38333;DHT22;25748;46.670;14.272;2023-02-04T03:54:15;0.10;66.70
38333;DHT22;25748;46.670;14.272;2023-02-04T03:56:41;0.10;66.70
38333;DHT22;25748;46.670;14.272;2023-02-04T03:59:06;0.10;66.70
38333;DHT22;25748;46.670;14.272;2023-02-04T04:01:32;0.00;66.90
38333;DHT22;25748;46.670;14.272;2023-02-04T04:03:58;0.00;67.00
38333;DHT22;25748;46.670;14.272;2023-02-04T04:06:24;0.00;67.10
38333;DHT22;25748;46.670;14.272;2023-02-04T04:08:49;0.00;67.60
38333;DHT22;25748;46.670;14.272;2023-02-04T04:11:15;-0.10;67.10
38333;DHT22;25748;46.670;14.272;2023-02-04T04:13:41;-0.20;67.10
38333;DHT22;25748;46.670;14.272;2023-02-04T04:16:06;-0.20;67.60
38333;DHT22;25748;46.670;14.272;2023-02-04T04:18:33;-0.20;67.70
38333;DHT22;25748;46.670;14.272;2023-02-04T04:20:59;-0.20;67.80
38333;DHT22;25748;46.670;14.272;2023-02-04T04:23:25;-0.20;67.80
38333;DHT22;25748;46.670;14.272;2023-02-04T04:25:51;-0.20;67.90
38333;DHT22;25748;46.670;14.272;2023-02-04T04:28:17;-0.20;68.00
38333;DHT22;25748;46.670;14.272;2023-02-04T04:30:42;-0.30;67.90
38333;DHT22;25748;46.670;14.272;2023-02-04T04:33:08;-0.30;67.80
38333;DHT22;25748;46.670;14.272;2023-02-04T04:35:34;-0.30;67.70
38333;DHT22;25748;46.670;14.272;2023-02-04T04:38:02;-0.30;67.80
38333;DHT22;25748;46.670;14.272;2023-02-04T04:40:29;-0.30;68.00
38333;DHT22;25748;46.670;14.272;2023-02-04T04:42:55;-0.30;68.00
38333;DHT22;25748;46.670;14.272;2023-02-04T04:45:21;-0.40;68.00
38333;DHT22;25748;46.670;14.272;2023-02-04T04:47:46;-0.40;68.20
38333;DHT22;25748;46.670;14.272;2023-02-04T04:50:12;-0.30;68.50
38333;DHT22;25748;46.670;14.272;2023-02-04T04:52:38;-0.30;68.80
38333;DHT22;25748;46.670;14.272;2023-02-04T04:55:04;-0.30;69.00
38333;DHT22;25748;46.670;14.272;2023-02-04T04:57:30;-0.30;69.10
38333;DHT22;25748;46.670;14.272;2023-02-04T04:59:56;-0.30;69.00
38333;DHT22;25748;46.670;14.272;2023-02-04T05:02:21;-0.30;69.00
38333;DHT22;25748;46.670;14.272;2023-02-04T05:04:47;-0.30;68.90
38333;DHT22;25748;46.670;14.272;2023-02-04T05:07:13;-0.40;68.30
38333;DHT22;25748;46.670;14.272;2023-02-04T05:09:38;-0.50;68.00
38333;DHT22;25748;46.670;14.272;2023-02-04T05:12:04;-0.50;68.00
38333;DHT22;25748;46.670;14.272;2023-02-04T05:14:30;-0.60;67.70
38333;DHT22;25748;46.670;14.272;2023-02-04T05:16:56;-0.60;67.80
38333;DHT22;25748;46.670;14.272;2023-02-04T05:19:21;-0.60;67.90
38333;DHT22;25748;46.670;14.272;2023-02-04T05:21:47;-0.70;67.60
38333;DHT22;25748;46.670;14.272;2023-02-04T05:24:13;-0.80;67.70
38333;DHT22;25748;46.670;14.272;2023-02-04T05:26:38;-0.80;68.10
38333;DHT22;25748;46.670;14.272;2023-02-04T05:29:04;-0.80;68.30
38333;DHT22;25748;46.670;14.272;2023-02-04T05:31:30;-0.80;68.40
38333;DHT22;25748;46.670;14.272;2023-02-04T05:33:56;-0.80;68.40
38333;DHT22;25748;46.670;14.272;2023-02-04T05:36:21;-0.80;68.40
38333;DHT22;25748;46.670;14.272;2023-02-04T05:38:47;-0.80;68.40
38333;DHT22;25748;46.670;14.272;2023-02-04T05:41:13;-0.80;68.60
38333;DHT22;25748;46.670;14.272;2023-02-04T05:43:39;-0.90;68.60
38333;DHT22;25748;46.670;14.272;2023-02-04T05:46:04;-0.90;68.70
38333;DHT22;25748;46.670;14.272;2023-02-04T05:48:30;-0.90;68.60
38333;DHT22;25748;46.670;14.272;2023-02-04T05:50:56;-0.90;68.70
38333;DHT22;25748;46.670;14.272;2023-02-04T05:53:22;-0.90;68.70
38333;DHT22;25748;46.670;14.272;2023-02-04T05:55:48;-1.00;68.60
38333;DHT22;25748;46.670;14.272;2023-02-04T05:58:13;-0.90;68.90
38333;DHT22;25748;46.670;14.272;2023-02-04T06:00:39;-0.90;68.70
38333;DHT22;25748;46.670;14.272;2023-02-04T06:03:05;-1.00;68.80
38333;DHT22;25748;46.670;14.272;2023-02-04T06:05:31;-1.00;68.90
38333;DHT22;25748;46.670;14.272;2023-02-04T06:07:57;-1.00;68.90
38333;DHT22;25748;46.670;14.272;2023-02-04T06:10:23;-1.00;68.80
38333;DHT22;25748;46.670;14.272;2023-02-04T06:12:48;-1.10;68.40
38333;DHT22;25748;46.670;14.272;2023-02-04T06:15:15;-1.10;68.50
38333;DHT22;25748;46.670;14.272;2023-02-04T06:17:41;-1.10;68.40
38333;DHT22;25748;46.670;14.272;2023-02-04T06:20:08;-1.20;68.00
38333;DHT22;25748;46.670;14.272;2023-02-04T06:22:34;-1.20;68.70
38333;DHT22;25748;46.670;14.272;2023-02-04T06:24:59;-1.20;68.30
38333;DHT22;25748;46.670;14.272;2023-02-04T06:27:25;-1.20;68.40
38333;DHT22;25748;46.670;14.272;2023-02-04T06:29:54;-1.30;68.40
38333;DHT22;25748;46.670;14.272;2023-02-04T06:32:20;-1.30;68.50
38333;DHT22;25748;46.670;14.272;2023-02-04T06:34:46;-1.30;68.40
38333;DHT22;25748;46.670;14.272;2023-02-04T06:37:12;-1.30;68.30
38333;DHT22;25748;46.670;14.272;2023-02-04T06:39:40;-1.40;68.10
38333;DHT22;25748;46.670;14.272;2023-02-04T06:42:05;-1.30;68.50
38333;DHT22;25748;46.670;14.272;2023-02-04T06:44:31;-1.40;68.10
38333;DHT22;25748;46.670;14.272;2023-02-04T06:46:57;-1.40;68.10
38333;DHT22;25748;46.670;14.272;2023-02-04T06:49:22;-1.40;69.20
38333;DHT22;25748;46.670;14.272;2023-02-04T06:51:50;-1.40;69.10
38333;DHT22;25748;46.670;14.272;2023-02-04T06:54:16;-1.40;68.90
38333;DHT22;25748;46.670;14.272;2023-02-04T06:56:41;-1.40;69.00
38333;DHT22;25748;46.670;14.272;2023-02-04T06:59:08;-1.40;69.10
38333;DHT22;25748;46.670;14.272;2023-02-04T07:01:34;-1.40;69.40
38333;DHT22;25748;46.670;14.272;2023-02-04T07:04:00;-1.40;69.30
38333;DHT22;25748;46.670;14.272;2023-02-04T07:06:26;-1.40;69.50
38333;DHT22;25748;46.670;14.272;2023-02-04T07:08:53;-1.40;69.70
38333;DHT22;25748;46.670;14.272;2023-02-04T07:11:18;-1.40;70.00
38333;DHT22;25748;46.670;14.272;2023-02-04T07:13:44;-1.10;71.50
38333;DHT22;25748;46.670;14.272;2023-02-04T07:16:10;-0.90;71.70
38333;DHT22;25748;46.670;14.272;2023-02-04T07:18:35;-0.80;71.40
38333;DHT22;25748;46.670;14.272;2023-02-04T07:21:01;-0.50;71.60
38333;DHT22;25748;46.670;14.272;2023-02-04T07:23:27;-0.30;71.20
38333;DHT22;25748;46.670;14.272;2023-02-04T07:25:53;0.00;70.40
38333;DHT22;25748;46.670;14.272;2023-02-04T07:28:20;0.50;67.90
38333;DHT22;25748;46.670;14.272;2023-02-04T07:30:46;1.40;60.90
38333;DHT22;25748;46.670;14.272;2023-02-04T07:33:12;1.90;58.60
38333;DHT22;25748;46.670;14.272;2023-02-04T07:35:38;2.50;57.00
38333;DHT22;25748;46.670;14.272;2023-02-04T07:38:04;3.10;53.60
38333;DHT22;25748;46.670;14.272;2023-02-04T07:40:29;3.40;53.20
38333;DHT22;25748;46.670;14.272;2023-02-04T07:42:55;4.00;50.90
38333;DHT22;25748;46.670;14.272;2023-02-04T07:45:21;4.40;50.00
38333;DHT22;25748;46.670;14.272;2023-02-04T07:47:47;4.80;48.20
38333;DHT22;25748;46.670;14.272;2023-02-04T07:50:12;5.20;47.20
38333;DHT22;25748;46.670;14.272;2023-02-04T07:52:38;5.40;46.80
38333;DHT22;25748;46.670;14.272;2023-02-04T07:55:05;5.70;45.20
38333;DHT22;25748;46.670;14.272;2023-02-04T07:57:31;5.90;45.00
38333;DHT22;25748;46.670;14.272;2023-02-04T07:59:56;6.20;43.50
38333;DHT22;25748;46.670;14.272;2023-02-04T08:02:22;6.40;42.80
38333;DHT22;25748;46.670;14.272;2023-02-04T08:04:48;6.60;42.60
38333;DHT22;25748;46.670;14.272;2023-02-04T08:07:13;6.80;41.60
38333;DHT22;25748;46.670;14.272;2023-02-04T08:09:39;7.00;40.50
38333;DHT22;25748;46.670;14.272;2023-02-04T08:12:05;7.20;40.40
38333;DHT22;25748;46.670;14.272;2023-02-04T08:14:30;7.30;40.40
38333;DHT22;25748;46.670;14.272;2023-02-04T08:16:56;7.40;39.70
38333;DHT22;25748;46.670;14.272;2023-02-04T08:19:22;7.50;39.50
38333;DHT22;25748;46.670;14.272;2023-02-04T08:21:47;7.60;38.90
38333;DHT22;25748;46.670;14.272;2023-02-04T08:24:14;7.70;38.90
38333;DHT22;25748;46.670;14.272;2023-02-04T08:26:43;7.80;38.60
38333;DHT22;25748;46.670;14.272;2023-02-04T08:29:12;7.90;38.10
38333;DHT22;25748;46.670;14.272;2023-02-04T08:31:38;8.00;37.00
38333;DHT22;25748;46.670;14.272;2023-02-04T08:34:04;8.00;37.30
38333;DHT22;25748;46.670;14.272;2023-02-04T08:36:30;8.10;37.70
38333;DHT22;25748;46.670;14.272;2023-02-04T08:38:56;8.20;37.30
38333;DHT22;25748;46.670;14.272;2023-02-04T08:41:21;8.20;36.90
38333;DHT22;25748;46.670;14.272;2023-02-04T08:43:47;8.30;36.90
38333;DHT22;25748;46.670;14.272;2023-02-04T08:46:13;8.40;36.20
38333;DHT22;25748;46.670;14.272;2023-02-04T08:48:38;8.50;36.30
38333;DHT22;25748;46.670;14.272;2023-02-04T08:51:04;8.60;36.70
38333;DHT22;25748;46.670;14.272;2023-02-04T08:53:31;8.70;36.40
38333;DHT22;25748;46.670;14.272;2023-02-04T08:55:57;8.70;36.60
38333;DHT22;25748;46.670;14.272;2023-02-04T08:58:23;8.80;36.30
38333;DHT22;25748;46.670;14.272;2023-02-04T09:00:48;8.70;36.40
38333;DHT22;25748;46.670;14.272;2023-02-04T09:03:14;8.80;36.30
38333;DHT22;25748;46.670;14.272;2023-02-04T09:05:39;9.00;36.40
38333;DHT22;25748;46.670;14.272;2023-02-04T09:08:05;9.10;36.30
38333;DHT22;25748;46.670;14.272;2023-02-04T09:10:35;9.10;35.90
38333;DHT22;25748;46.670;14.272;2023-02-04T09:13:01;9.10;35.40
38333;DHT22;25748;46.670;14.272;2023-02-04T09:15:27;9.30;35.70
38333;DHT22;25748;46.670;14.272;2023-02-04T09:17:53;9.40;34.90
38333;DHT22;25748;46.670;14.272;2023-02-04T09:20:25;9.50;35.50
38333;DHT22;25748;46.670;14.272;2023-02-04T09:22:51;9.60;36.10
38333;DHT22;25748;46.670;14.272;2023-02-04T09:25:17;9.60;34.80
38333;DHT22;25748;46.670;14.272;2023-02-04T09:27:42;9.80;35.00
38333;DHT22;25748;46.670;14.272;2023-02-04T09:30:11;9.90;35.00
38333;DHT22;25748;46.670;14.272;2023-02-04T09:32:37;9.90;35.30
38333;DHT22;25748;46.670;14.272;2023-02-04T09:35:03;9.90;34.80
38333;DHT22;25748;46.670;14.272;2023-02-04T09:37:28;10.00;34.50
38333;DHT22;25748;46.670;14.272;2023-02-04T09:39:54;10.00;34.60
38333;DHT22;25748;46.670;14.272;2023-02-04T09:42:22;10.10;33.60
38333;DHT22;25748;46.670;14.272;2023-02-04T09:44:49;10.20;34.80
38333;DHT22;25748;46.670;14.272;2023-02-04T09:47:16;10.20;33.50
38333;DHT22;25748;46.670;14.272;2023-02-04T09:49:50;10.30;34.50
38333;DHT22;25748;46.670;14.272;2023-02-04T09:52:17;10.40;35.00
38333;DHT22;25748;46.670;14.272;2023-02-04T09:54:43;10.30;37.10
38333;DHT22;25748;46.670;14.272;2023-02-04T09:57:27;10.20;37.90
38333;DHT22;25748;46.670;14.272;2023-02-04T09:59:55;10.00;35.20
38333;DHT22;25748;46.670;14.272;2023-02-04T10:02:24;10.00;35.50
38333;DHT22;25748;46.670;14.272;2023-02-04T10:04:51;10.00;37.50
38333;DHT22;25748;46.670;14.272;2023-02-04T10:07:20;9.90;38.70
38333;DHT22;25748;46.670;14.272;2023-02-04T10:09:50;10.00;36.40
38333;DHT22;25748;46.670;14.272;2023-02-04T10:12:16;10.00;36.60
38333;DHT22;25748;46.670;14.272;2023-02-04T10:14:43;9.70;37.30
38333;DHT22;25748;46.670;14.272;2023-02-04T10:17:10;9.60;35.90
38333;DHT22;25748;46.670;14.272;2023-02-04T10:19:37;9.70;38.50
38333;DHT22;25748;46.670;14.272;2023-02-04T10:22:06;9.70;39.50
38333;DHT22;25748;46.670;14.272;2023-02-04T10:24:35;9.60;39.30
38333;DHT22;25748;46.670;14.272;2023-02-04T10:27:10;9.60;39.70
38333;DHT22;25748;46.670;14.272;2023-02-04T10:29:36;9.50;39.60
38333;DHT22;25748;46.670;14.272;2023-02-04T10:32:02;9.50;39.90
38333;DHT22;25748;46.670;14.272;2023-02-04T10:34:32;9.50;39.30
38333;DHT22;25748;46.670;14.272;2023-02-04T10:36:58;9.40;39.60
38333;DHT22;25748;46.670;14.272;2023-02-04T10:39:29;9.50;38.40
38333;DHT22;25748;46.670;14.272;2023-02-04T10:41:57;9.50;38.60
38333;DHT22;25748;46.670;14.272;2023-02-04T10:44:35;9.50;39.50
38333;DHT22;25748;46.670;14.272;2023-02-04T10:47:03;9.50;38.00
38333;DHT22;25748;46.670;14.272;2023-02-04T10:49:29;9.60;38.40
38333;DHT22;25748;46.670;14.272;2023-02-04T10:51:55;9.60;38.40
38333;DHT22;25748;46.670;14.272;2023-02-04T10:54:25;9.60;38.20
38333;DHT22;25748;46.670;14.272;2023-02-04T10:59:25;9.90;39.30
38333;DHT22;25748;46.670;14.272;2023-02-04T11:01:56;9.90;38.70
38333;DHT22;25748;46.670;14.272;2023-02-04T11:04:24;10.00;37.80
38333;DHT22;25748;46.670;14.272;2023-02-04T11:06:51;10.10;37.20
38333;DHT22;25748;46.670;14.272;2023-02-04T11:09:20;10.10;37.20
38333;DHT22;25748;46.670;14.272;2023-02-04T11:11:49;10.20;37.10
38333;DHT22;25748;46.670;14.272;2023-02-04T11:14:27;10.10;37.50
38333;DHT22;25748;46.670;14.272;2023-02-04T11:16:56;10.10;37.80
38333;DHT22;25748;46.670;14.272;2023-02-04T11:19:33;10.10;37.60
38333;DHT22;25748;46.670;14.272;2023-02-04T11:22:18;10.00;37.10
38333;DHT22;25748;46.670;14.272;2023-02-04T11:24:46;9.90;37.10
38333;DHT22;25748;46.670;14.272;2023-02-04T11:27:24;9.80;36.80
38333;DHT22;25748;46.670;14.272;2023-02-04T11:29:51;9.70;37.20
38333;DHT22;25748;46.670;14.272;2023-02-04T11:32:31;9.70;37.20
38333;DHT22;25748;46.670;14.272;2023-02-04T11:37:41;9.60;36.70
38333;DHT22;25748;46.670;14.272;2023-02-04T11:40:34;9.40;36.80
38333;DHT22;25748;46.670;14.272;2023-02-04T11:43:12;9.30;36.20
38333;DHT22;25748;46.670;14.272;2023-02-04T11:45:39;9.30;36.30
38333;DHT22;25748;46.670;14.272;2023-02-04T11:48:17;9.20;36.50
38333;DHT22;25748;46.670;14.272;2023-02-04T11:50:57;9.10;36.40
38333;DHT22;25748;46.670;14.272;2023-02-04T11:53:27;9.10;35.90
38333;DHT22;25748;46.670;14.272;2023-02-04T11:55:54;8.90;36.70
38333;DHT22;25748;46.670;14.272;2023-02-04T11:58:19;8.70;36.00
38333;DHT22;25748;46.670;14.272;2023-02-04T12:00:45;8.70;36.20
38333;DHT22;25748;46.670;14.272;2023-02-04T12:03:31;8.70;36.00
38333;DHT22;25748;46.670;14.272;2023-02-04T12:06:00;8.70;36.20
38333;DHT22;25748;46.670;14.272;2023-02-04T12:08:35;8.60;36.40
38333;DHT22;25748;46.670;14.272;2023-02-04T12:11:30;8.50;36.30
38333;DHT22;25748;46.670;14.272;2023-02-04T12:14:05;8.40;36.80
38333;DHT22;25748;46.670;14.272;2023-02-04T12:16:46;8.40;37.00
38333;DHT22;25748;46.670;14.272;2023-02-04T12:19:12;8.30;36.90
38333;DHT22;25748;46.670;14.272;2023-02-04T12:21:38;8.30;37.00
38333;DHT22;25748;46.670;14.272;2023-02-04T12:24:04;8.30;36.90
38333;DHT22;25748;46.670;14.272;2023-02-04T12:26:30;8.20;37.20
38333;DHT22;25748;46.670;14.272;2023-02-04T12:28:56;8.20;37.50
38333;DHT22;25748;46.670;14.272;2023-02-04T12:31:21;8.10;38.00
38333;DHT22;25748;46.670;14.272;2023-02-04T12:33:47;8.00;37.60
38333;DHT22;25748;46.670;14.272;2023-02-04T12:36:13;8.00;37.80
38333;DHT22;25748;46.670;14.272;2023-02-04T12:38:39;8.00;37.80
38333;DHT22;25748;46.670;14.272;2023-02-04T12:41:05;7.90;37.60
38333;DHT22;25748;46.670;14.272;2023-02-04T12:43:30;7.90;37.80
38333;DHT22;25748;46.670;14.272;2023-02-04T12:45:56;7.90;37.90
38333;DHT22;25748;46.670;14.272;2023-02-04T12:48:22;7.90;37.70
38333;DHT22;25748;46.670;14.272;2023-02-04T12:50:49;7.90;37.90
38333;DHT22;25748;46.670;14.272;2023-02-04T12:53:15;7.90;38.20
38333;DHT22;25748;46.670;14.272;2023-02-04T12:55:40;7.90;38.10
38333;DHT22;25748;46.670;14.272;2023-02-04T12:58:06;7.90;37.90
38333;DHT22;25748;46.670;14.272;2023-02-04T13:00:32;7.80;38.50
38333;DHT22;25748;46.670;14.272;2023-02-04T13:03:00;7.90;39.00
38333;DHT22;25748;46.670;14.272;2023-02-04T13:05:29;7.90;38.60
38333;DHT22;25748;46.670;14.272;2023-02-04T13:07:55;7.90;38.80
38333;DHT22;25748;46.670;14.272;2023-02-04T13:10:22;8.00;38.10
38333;DHT22;25748;46.670;14.272;2023-02-04T13:12:49;8.00;37.60
38333;DHT22;25748;46.670;14.272;2023-02-04T13:15:15;8.10;37.40
38333;DHT22;25748;46.670;14.272;2023-02-04T13:17:41;8.10;37.60
38333;DHT22;25748;46.670;14.272;2023-02-04T13:20:07;8.10;37.40
38333;DHT22;25748;46.670;14.272;2023-02-04T13:22:36;8.10;37.40
38333;DHT22;25748;46.670;14.272;2023-02-04T13:25:02;8.20;37.70
38333;DHT22;25748;46.670;14.272;2023-02-04T13:27:28;8.20;37.40
38333;DHT22;25748;46.670;14.272;2023-02-04T13:29:54;8.30;37.20
38333;DHT22;25748;46.670;14.272;2023-02-04T13:32:19;8.30;37.30
38333;DHT22;25748;46.670;14.272;2023-02-04T13:34:45;8.20;37.90
38333;DHT22;25748;46.670;14.272;2023-02-04T13:37:11;8.20;37.50
38333;DHT22;25748;46.670;14.272;2023-02-04T13:39:36;8.10;36.70
38333;DHT22;25748;46.670;14.272;2023-02-04T13:42:05;8.00;37.00
38333;DHT22;25748;46.670;14.272;2023-02-04T13:44:33;8.00;37.00
38333;DHT22;25748;46.670;14.272;2023-02-04T13:46:59;7.90;36.90
38333;DHT22;25748;46.670;14.272;2023-02-04T13:49:24;7.80;37.40
38333;DHT22;25748;46.670;14.272;2023-02-04T13:51:50;7.80;37.60
38333;DHT22;25748;46.670;14.272;2023-02-04T13:54:16;7.70;37.40
38333;DHT22;25748;46.670;14.272;2023-02-04T13:56:41;7.70;37.30
38333;DHT22;25748;46.670;14.272;2023-02-04T13:59:07;7.50;36.60
38333;DHT22;25748;46.670;14.272;2023-02-04T14:01:33;7.50;37.10
38333;DHT22;25748;46.670;14.272;2023-02-04T14:03:58;7.50;37.20
38333;DHT22;25748;46.670;14.272;2023-02-04T14:06:24;7.40;37.50
38333;DHT22;25748;46.670;14.272;2023-02-04T14:08:58;7.40;37.50
38333;DHT22;25748;46.670;14.272;2023-02-04T14:11:24;7.30;37.20
38333;DHT22;25748;46.670;14.272;2023-02-04T14:13:50;7.20;37.20
38333;DHT22;25748;46.670;14.272;2023-02-04T14:16:18;7.10;37.50
38333;DHT22;25748;46.670;14.272;2023-02-04T14:18:44;7.10;38.00
38333;DHT22;25748;46.670;14.272;2023-02-04T14:21:10;7.10;36.60
38333;DHT22;25748;46.670;14.272;2023-02-04T14:23:36;7.10;37.10
38333;DHT22;25748;46.670;14.272;2023-02-04T14:26:01;7.10;37.10
38333;DHT22;25748;46.670;14.272;2023-02-04T14:28:27;7.00;37.20
38333;DHT22;25748;46.670;14.272;2023-02-04T14:30:53;7.00;36.90
38333;DHT22;25748;46.670;14.272;2023-02-04T14:33:19;7.10;37.40
38333;DHT22;25748;46.670;14.272;2023-02-04T14:35:45;7.00;36.90
38333;DHT22;25748;46.670;14.272;2023-02-04T14:38:11;7.10;37.40
38333;DHT22;25748;46.670;14.272;2023-02-04T14:40:37;7.30;37.60
38333;DHT22;25748;46.670;14.272;2023-02-04T14:43:03;7.30;37.50
38333;DHT22;25748;46.670;14.272;2023-02-04T14:45:29;7.40;37.30
38333;DHT22;25748;46.670;14.272;2023-02-04T14:47:54;7.30;37.00
38333;DHT22;25748;46.670;14.272;2023-02-04T14:50:23;7.30;37.30
38333;DHT22;25748;46.670;14.272;2023-02-04T14:52:52;7.30;36.40
38333;DHT22;25748;46.670;14.272;2023-02-04T14:55:18;7.30;37.00
38333;DHT22;25748;46.670;14.272;2023-02-04T14:57:43;7.30;37.10
38333;DHT22;25748;46.670;14.272;2023-02-04T15:00:11;7.30;37.80
38333;DHT22;25748;46.670;14.272;2023-02-04T15:02:36;7.30;38.00
38333;DHT22;25748;46.670;14.272;2023-02-04T15:05:03;7.20;37.10
38333;DHT22;25748;46.670;14.272;2023-02-04T15:07:29;7.20;37.40
38333;DHT22;25748;46.670;14.272;2023-02-04T15:09:55;7.20;37.50
38333;DHT22;25748;46.670;14.272;2023-02-04T15:12:20;7.20;37.30
38333;DHT22;25748;46.670;14.272;2023-02-04T15:14:47;7.10;37.00
38333;DHT22;25748;46.670;14.272;2023-02-04T15:17:12;7.20;37.30
38333;DHT22;25748;46.670;14.272;2023-02-04T15:19:38;7.10;37.60
38333;DHT22;25748;46.670;14.272;2023-02-04T15:22:04;7.10;37.70
38333;DHT22;25748;46.670;14.272;2023-02-04T15:24:29;7.00;37.10
38333;DHT22;25748;46.670;14.272;2023-02-04T15:26:55;6.90;37.50
38333;DHT22;25748;46.670;14.272;2023-02-04T15:29:21;6.90;37.70
38333;DHT22;25748;46.670;14.272;2023-02-04T15:31:46;6.90;37.00
38333;DHT22;25748;46.670;14.272;2023-02-04T15:34:12;6.90;37.20
38333;DHT22;25748;46.670;14.272;2023-02-04T15:36:38;6.90;37.60